createdAt,value
2022-10-02T06:54:31.533Z,98391.00
2022-10-02T07:00:12.500Z,98371.25
2022-10-02T07:06:02.518Z,98373.25
2022-10-02T07:11:37.555Z,98344.16
2022-10-02T07:17:23.506Z,98335.59
2022-10-02T07:23:01.513Z,98327.00
2022-10-02T07:28:35.536Z,98322.59
2022-10-02T07:34:20.494Z,98334.38
2022-10-02T07:39:58.510Z,98339.78
2022-10-02T07:45:43.612Z,98343.22
2022-10-02T07:51:34.542Z,98346.31
2022-10-02T07:57:03.305Z,98347.22
2022-10-02T08:02:42.550Z,98339.19
2022-10-02T08:08:12.503Z,98349.44
2022-10-02T08:13:43.542Z,98355.97
2022-10-02T08:19:14.522Z,98353.63
2022-10-02T08:24:42.602Z,98359.91
2022-10-02T08:30:13.550Z,98347.75
2022-10-02T08:35:52.559Z,98350.25
2022-10-02T08:41:48.613Z,98349.25
2022-10-02T08:47:50.614Z,98355.44
2022-10-02T08:53:50.572Z,98343.06
2022-10-02T08:59:43.577Z,98327.22
2022-10-02T09:05:50.551Z,98338.16
2022-10-02T09:11:51.579Z,98323.00
2022-10-02T09:17:37.578Z,98332.28
2022-10-02T09:23:22.586Z,98326.88
2022-10-02T09:29:35.562Z,98323.84
2022-10-02T09:35:34.593Z,98320.16
2022-10-02T09:41:30.637Z,98328.63
2022-10-02T09:47:49.622Z,98337.41
2022-10-02T09:53:51.658Z,98334.59
2022-10-02T09:59:56.632Z,98326.69
2022-10-02T10:05:48.577Z,98320.56
2022-10-02T10:11:35.845Z,98328.34
2022-10-02T10:17:29.594Z,98318.69
2022-10-02T10:23:17.627Z,98314.88
2022-10-02T10:29:01.841Z,98316.50
2022-10-02T10:35:26.468Z,98314.44
2022-10-02T10:41:29.606Z,98313.56
2022-10-02T10:47:28.657Z,98318.91
2022-10-02T10:53:10.647Z,98324.34
2022-10-02T10:58:49.761Z,98327.22
2022-10-02T11:04:54.679Z,98322.16
2022-10-02T11:10:44.646Z,98312.56
2022-10-02T11:16:26.689Z,98314.59
2022-10-02T11:22:22.680Z,98301.44
2022-10-02T11:28:25.763Z,98294.47
2022-10-02T11:34:23.673Z,98300.34
2022-10-02T11:40:03.743Z,98293.94
2022-10-02T11:45:54.718Z,98307.66
2022-10-02T11:51:35.058Z,98288.44
2022-10-02T11:57:20.715Z,98298.56
2022-10-02T12:03:01.882Z,98291.06
2022-10-02T12:08:38.574Z,98289.31
2022-10-02T12:14:15.750Z,98311.16
2022-10-02T12:20:16.790Z,98309.06
2022-10-02T12:26:04.973Z,98309.72
2022-10-02T12:31:36.947Z,98314.81
2022-10-02T12:37:14.821Z,98334.31
2022-10-02T12:43:16.761Z,98309.44
2022-10-02T12:49:00.779Z,98316.69
2022-10-02T12:55:09.817Z,98309.09
2022-10-02T13:00:44.819Z,98315.44
2022-10-02T13:06:38.766Z,98308.16
2022-10-02T13:12:27.803Z,98319.38
2022-10-02T13:18:03.447Z,98312.00
2022-10-02T13:23:42.635Z,98310.66
2022-10-02T13:29:40.787Z,98313.44
2022-10-02T13:35:34.742Z,98297.63
2022-10-02T13:41:07.747Z,98305.06
2022-10-02T13:46:54.751Z,98312.88
2022-10-02T13:52:46.270Z,98337.72
2022-10-02T13:58:44.936Z,98334.22
2022-10-02T14:04:39.197Z,98320.75
2022-10-02T14:10:26.459Z,98330.97
2022-10-02T14:22:57.015Z,98346.72
2022-10-02T14:34:34.845Z,98349.75
2022-10-02T14:40:01.006Z,98341.16
2022-10-02T14:45:40.950Z,98348.59
2022-10-02T14:51:25.836Z,98359.25
2022-10-02T14:57:08.826Z,98353.84
2022-10-02T15:02:52.006Z,98342.19
2022-10-02T15:08:25.842Z,98335.59
2022-10-02T15:13:58.810Z,98346.41
2022-10-02T15:19:31.847Z,98369.03
2022-10-02T15:25:05.862Z,98385.63
2022-10-02T15:30:35.828Z,98384.97
2022-10-02T15:36:29.822Z,98390.06
2022-10-02T15:42:09.844Z,98389.69
2022-10-02T15:48:00.862Z,98405.72
2022-10-02T15:53:46.003Z,98415.19
2022-10-02T15:59:29.868Z,98431.88
2022-10-02T16:05:08.825Z,98450.78
2022-10-02T16:10:40.847Z,98471.03
2022-10-02T16:16:16.880Z,98483.84
2022-10-02T16:21:53.835Z,98481.97
2022-10-02T16:27:39.795Z,98471.81
2022-10-02T16:33:33.867Z,98472.69
2022-10-02T16:39:00.857Z,98482.09
2022-10-02T16:44:41.825Z,98485.09
2022-10-02T16:50:14.839Z,98498.88
2022-10-02T16:55:47.812Z,98511.16
2022-10-02T17:01:28.808Z,98515.19
2022-10-02T17:07:05.865Z,98511.44
2022-10-02T17:12:35.874Z,98525.56
2022-10-02T17:18:16.849Z,98546.28
2022-10-02T17:23:53.855Z,98550.28
2022-10-02T17:29:27.988Z,98566.09
2022-10-02T17:34:58.851Z,98558.34
2022-10-02T17:40:39.841Z,98556.97
2022-10-02T17:46:15.951Z,98563.50
2022-10-02T17:51:58.885Z,98570.03
2022-10-02T17:57:39.870Z,98580.31
2022-10-02T18:03:26.898Z,98582.31
2022-10-02T18:09:17.903Z,98601.31
2022-10-02T18:15:11.902Z,98619.03
2022-10-02T18:20:43.877Z,98626.72
2022-10-02T18:26:29.870Z,98628.75
2022-10-02T18:32:15.911Z,98635.16
2022-10-02T18:37:57.881Z,98645.22
2022-10-02T18:43:38.900Z,98656.88
2022-10-02T18:49:27.935Z,98653.88
2022-10-02T18:55:06.923Z,98640.28
2022-10-02T19:00:34.954Z,98652.63
2022-10-02T19:06:11.891Z,98657.47
2022-10-02T19:11:38.937Z,98668.88
2022-10-02T19:17:15.884Z,98680.97
2022-10-02T19:22:45.922Z,98692.22
2022-10-02T19:28:10.956Z,98685.81
2022-10-02T19:33:48.939Z,98683.44
2022-10-02T19:39:18.927Z,98695.91
2022-10-02T19:44:53.895Z,98687.34
2022-10-02T19:50:29.924Z,98700.31
2022-10-02T19:55:58.963Z,98705.38
2022-10-02T20:01:30.960Z,98711.59
2022-10-02T20:07:05.924Z,98713.47
2022-10-02T20:12:38.981Z,98716.47
2022-10-02T20:18:02.950Z,98732.66
2022-10-02T20:23:34.912Z,98734.81
2022-10-02T20:29:07.921Z,98743.06
2022-10-02T20:34:38.023Z,98740.19
2022-10-02T20:40:06.959Z,98765.59
2022-10-02T20:45:44.015Z,98760.97
2022-10-02T20:51:16.947Z,98773.59
2022-10-02T20:57:00.002Z,98770.97
2022-10-02T21:02:44.931Z,98775.59
2022-10-02T21:08:40.950Z,98788.63
2022-10-02T21:14:49.971Z,98800.31
2022-10-02T21:20:53.975Z,98807.72
2022-10-02T21:26:55.960Z,98815.13
2022-10-02T21:32:36.968Z,98824.63
2022-10-02T21:38:19.987Z,98825.75
2022-10-02T21:44:13.007Z,98822.25
2022-10-02T21:50:14.978Z,98835.72
2022-10-02T21:56:00.011Z,98834.63
2022-10-02T22:02:07.923Z,98838.13
2022-10-02T22:07:45.971Z,98850.34
2022-10-02T22:13:25.011Z,98846.09
2022-10-02T22:19:02.990Z,98857.16
2022-10-02T22:24:58.017Z,98846.28
2022-10-02T22:30:35.026Z,98848.97
2022-10-02T22:36:24.017Z,98860.00
2022-10-02T22:41:53.072Z,98866.81
2022-10-02T22:47:30.002Z,98868.78
2022-10-02T22:53:03.986Z,98870.34
2022-10-02T22:58:33.006Z,98873.19
2022-10-02T23:04:09.029Z,98867.09
2022-10-02T23:09:46.007Z,98861.97
2022-10-02T23:15:19.006Z,98879.28
2022-10-02T23:20:49.043Z,98880.97
2022-10-02T23:26:23.027Z,98881.13
2022-10-02T23:31:55.015Z,98891.59
2022-10-02T23:37:31.033Z,98901.38
2022-10-02T23:43:06.053Z,98906.75
2022-10-02T23:48:32.043Z,98913.84
2022-10-02T23:54:28.045Z,98910.69
